Time;durP1;ratioP1;P1;durP2;ratioP2;P2;SDS_P1;SDS_P2;PMS_P1;PMS_P2;Temp;Humidity;BMP_temperature;BMP_pressure;BME280_temperature;BME280_humidity;BME280_pressure;Samples;Min_cycle;Max_cycle;Signal;HPM_P1;HPM_P2
2021/10/16 00:00:40;;;;;;;15.80;3.13;;;9.50;90.10;;;;;;5037303;28;20267;-90
2021/10/16 00:03:06;;;;;;;16.17;3.63;;;9.50;89.90;;;;;;5037181;28;20237;-90
2021/10/16 00:05:31;;;;;;;10.57;2.63;;;9.50;89.90;;;;;;5054934;28;20274;-90
2021/10/16 00:07:57;;;;;;;17.03;3.50;;;9.50;89.90;;;;;;5054951;28;20262;-90
2021/10/16 00:10:23;;;;;;;7.37;2.30;;;9.40;90.10;;;;;;5037509;28;20184;-90
2021/10/16 00:12:49;;;;;;;14.47;2.93;;;9.40;90.30;;;;;;5037366;28;20176;-90
2021/10/16 00:15:15;;;;;;;12.03;3.07;;;9.30;90.50;;;;;;5055069;28;20257;-90
2021/10/16 00:17:41;;;;;;;15.67;3.30;;;9.30;90.70;;;;;;5054654;28;20207;-89
2021/10/16 00:20:08;;;;;;;16.20;3.33;;;9.30;90.90;;;;;;5036914;28;20190;-89
2021/10/16 00:22:34;;;;;;;16.90;3.13;;;9.40;90.80;;;;;;5036903;28;20542;-90
2021/10/16 00:24:59;;;;;;;18.30;3.47;;;9.40;90.80;;;;;;5054589;28;20198;-90
2021/10/16 00:27:25;;;;;;;14.30;3.33;;;9.30;91.10;;;;;;5036321;28;20172;-90
2021/10/16 00:29:51;;;;;;;15.70;2.90;;;9.30;91.10;;;;;;5037035;28;20175;-90
2021/10/16 00:32:16;;;;;;;10.03;3.33;;;9.30;91.00;;;;;;5037019;28;20175;-90
2021/10/16 00:34:42;;;;;;;13.50;3.03;;;9.30;91.00;;;;;;5036703;28;20688;-90
2021/10/16 00:37:08;;;;;;;17.47;2.90;;;9.30;91.10;;;;;;5054729;28;20544;-90
2021/10/16 00:39:33;;;;;;;12.20;3.50;;;9.40;90.90;;;;;;5036676;28;20200;-90
2021/10/16 00:41:59;;;;;;;11.67;2.80;;;9.40;90.90;;;;;;5036466;28;20180;-90
2021/10/16 00:44:26;;;;;;;10.60;2.60;;;9.40;91.10;;;;;;5054214;28;20217;-90
2021/10/16 00:46:58;;;;;;;9.57;2.80;;;9.50;90.90;;;;;;5054226;28;20172;-90
2021/10/16 00:49:28;;;;;;;14.67;3.10;;;9.40;91.00;;;;;;5036319;28;20189;-90
2021/10/16 00:51:54;;;;;;;10.10;2.63;;;9.40;91.00;;;;;;5036956;28;20249;-90
2021/10/16 00:54:21;;;;;;;16.00;2.90;;;9.40;91.00;;;;;;5036420;28;20219;-90
2021/10/16 00:56:49;;;;;;;13.57;2.77;;;9.40;90.90;;;;;;5036211;28;20184;-89
2021/10/16 00:59:18;;;;;;;14.50;2.93;;;9.40;91.00;;;;;;5054187;28;20286;-90
2021/10/16 01:01:43;;;;;;;18.03;2.60;;;9.30;91.10;;;;;;5036448;28;20176;-90
2021/10/16 01:04:09;;;;;;;11.10;3.47;;;9.30;91.40;;;;;;5036000;28;20252;-90
2021/10/16 01:06:38;;;;;;;17.87;4.10;;;9.30;91.50;;;;;;5053809;28;20250;-90
2021/10/16 01:09:10;;;;;;;16.97;2.97;;;9.30;91.40;;;;;;5054215;28;20183;-90
2021/10/16 01:11:38;;;;;;;15.83;3.13;;;9.30;91.30;;;;;;5035900;28;20176;-90
2021/10/16 01:14:06;;;;;;;14.40;3.47;;;9.30;91.30;;;;;;5036074;28;20200;-90
2021/10/16 01:16:33;;;;;;;11.87;2.97;;;9.30;91.30;;;;;;5036236;28;20549;-90
2021/10/16 01:18:59;;;;;;;15.10;3.67;;;9.30;91.40;;;;;;5035745;28;20215;-90
2021/10/16 01:21:28;;;;;;;19.20;3.80;;;9.20;91.60;;;;;;5035809;28;20172;-90
2021/10/16 01:23:54;;;;;;;13.90;2.77;;;9.20;91.60;;;;;;5036109;28;20172;-90
2021/10/16 01:26:20;;;;;;;13.47;3.40;;;9.20;91.80;;;;;;5035759;28;20183;-90
2021/10/16 01:28:46;;;;;;;10.87;3.13;;;9.20;91.80;;;;;;5053800;28;20176;-90
2021/10/16 01:31:12;;;;;;;13.17;3.63;;;9.20;91.60;;;;;;5035924;28;20637;-90
2021/10/16 01:33:38;;;;;;;12.00;3.27;;;9.20;91.50;;;;;;5035497;28;20187;-90
2021/10/16 01:36:05;;;;;;;14.53;4.30;;;9.10;91.70;;;;;;5035641;28;20180;-90
2021/10/16 01:38:32;;;;;;;11.23;3.30;;;9.00;91.80;;;;;;5035491;28;20239;-90
2021/10/16 01:40:59;;;;;;;17.57;4.20;;;9.00;91.60;;;;;;5035172;28;20267;-90
2021/10/16 01:43:25;;;;;;;15.73;4.73;;;9.10;91.60;;;;;;5035832;28;20183;-90
2021/10/16 01:45:52;;;;;;;15.83;3.83;;;9.10;91.60;;;;;;5035655;28;20207;-90
2021/10/16 01:48:25;;;;;;;13.53;3.00;;;9.10;91.60;;;;;;5035379;28;20176;-90
2021/10/16 01:50:52;;;;;;;11.20;4.20;;;9.10;91.50;;;;;;5036179;28;20176;-90
2021/10/16 01:53:19;;;;;;;18.50;4.03;;;9.10;91.40;;;;;;5035399;28;20187;-90
2021/10/16 01:55:45;;;;;;;16.57;3.77;;;9.20;91.40;;;;;;5035161;28;20219;-90
2021/10/16 01:58:13;;;;;;;11.83;3.53;;;9.20;91.30;;;;;;5053682;28;20681;-90
2021/10/16 02:00:39;;;;;;;20.23;4.00;;;9.20;91.20;;;;;;5053248;28;20755;-89
2021/10/16 02:03:09;;;;;;;14.40;3.70;;;9.20;91.00;;;;;;5035207;28;20267;-90
2021/10/16 02:05:40;;;;;;;10.90;3.60;;;9.20;91.00;;;;;;5035179;28;20285;-90
2021/10/16 02:08:05;;;;;;;11.47;3.50;;;9.20;91.10;;;;;;5053422;28;20184;-90
2021/10/16 02:10:31;;;;;;;10.37;3.33;;;9.20;91.20;;;;;;5035341;28;20227;-90
2021/10/16 02:12:57;;;;;;;15.50;3.83;;;9.20;91.30;;;;;;5053164;28;20176;-89
2021/10/16 02:15:22;;;;;;;11.20;3.87;;;9.20;91.40;;;;;;5035184;28;20213;-89
2021/10/16 02:17:48;;;;;;;10.00;3.80;;;9.20;91.50;;;;;;5035135;28;20231;-90
2021/10/16 02:20:14;;;;;;;12.60;4.10;;;9.30;91.50;;;;;;5035395;28;20214;-90
2021/10/16 02:22:39;;;;;;;14.13;4.93;;;9.30;91.30;;;;;;5035190;28;20174;-90
2021/10/16 02:25:06;;;;;;;12.40;3.10;;;9.30;91.30;;;;;;5035065;28;20287;-90
2021/10/16 02:27:31;;;;;;;13.63;3.33;;;9.30;91.10;;;;;;5052814;28;20178;-90
2021/10/16 02:29:57;;;;;;;15.57;4.00;;;9.30;90.90;;;;;;5035446;28;20235;-90
2021/10/16 02:32:23;;;;;;;15.50;3.63;;;9.30;90.80;;;;;;5035031;28;20176;-90
2021/10/16 02:34:48;;;;;;;17.93;3.90;;;9.30;90.80;;;;;;5052892;28;20213;-90
2021/10/16 02:37:14;;;;;;;10.57;3.43;;;9.30;90.60;;;;;;5053116;28;20517;-90
2021/10/16 02:39:40;;;;;;;11.63;3.47;;;9.30;90.60;;;;;;5034870;28;20204;-90
2021/10/16 02:42:05;;;;;;;14.77;3.00;;;9.30;90.40;;;;;;5034939;28;20176;-90
2021/10/16 02:44:31;;;;;;;13.87;3.23;;;9.30;90.40;;;;;;5035068;28;20735;-90
2021/10/16 02:46:57;;;;;;;19.07;3.63;;;9.20;90.50;;;;;;5052693;28;20177;-90
2021/10/16 02:49:23;;;;;;;10.90;3.43;;;9.20;90.40;;;;;;5035153;28;20184;-90
2021/10/16 02:51:48;;;;;;;12.37;3.17;;;9.10;90.30;;;;;;5036356;28;20566;-90
2021/10/16 02:54:14;;;;;;;16.53;3.60;;;9.00;90.40;;;;;;5056424;28;20211;-90
2021/10/16 02:56:40;;;;;;;20.23;3.73;;;9.00;90.50;;;;;;5038511;28;20294;-90
2021/10/16 02:59:06;;;;;;;10.07;2.30;;;8.90;90.80;;;;;;5038449;28;20203;-90
2021/10/16 03:01:32;;;;;;;14.00;3.73;;;9.00;91.30;;;;;;5038291;28;20204;-90
2021/10/16 03:03:58;;;;;;;12.47;3.47;;;9.00;91.30;;;;;;5038363;28;20175;-90
2021/10/16 03:06:23;;;;;;;10.40;3.73;;;9.00;91.40;;;;;;5056136;28;20259;-90
2021/10/16 03:08:49;;;;;;;10.03;2.97;;;9.00;91.40;;;;;;5038213;28;20547;-90
2021/10/16 03:11:15;;;;;;;10.97;3.30;;;9.00;91.40;;;;;;5038260;28;20180;-90
2021/10/16 03:13:40;;;;;;;11.27;2.80;;;9.00;91.40;;;;;;5039029;28;20241;-90
2021/10/16 03:16:06;;;;;;;15.80;2.97;;;9.00;91.60;;;;;;5055973;28;20188;-90
2021/10/16 03:18:32;;;;;;;14.57;3.20;;;9.10;91.60;;;;;;5037919;28;20576;-90
2021/10/16 03:20:59;;;;;;;11.23;3.10;;;9.10;91.70;;;;;;5038417;28;20263;-90
2021/10/16 03:23:24;;;;;;;12.87;3.10;;;9.10;91.60;;;;;;5055881;28;20694;-90
2021/10/16 03:25:50;;;;;;;12.47;2.97;;;9.10;91.60;;;;;;5038272;28;20291;-90
2021/10/16 03:28:16;;;;;;;12.23;3.23;;;9.00;91.50;;;;;;5056008;28;20245;-90
2021/10/16 03:30:42;;;;;;;11.47;3.30;;;8.90;91.50;;;;;;5037853;28;20277;-90
2021/10/16 03:33:07;;;;;;;9.43;3.13;;;8.80;91.60;;;;;;5055938;28;20574;-90
2021/10/16 03:35:34;;;;;;;9.03;3.40;;;8.80;91.80;;;;;;5037786;28;20303;-90
2021/10/16 03:38:00;;;;;;;14.07;3.33;;;8.80;91.70;;;;;;5037579;28;20239;-90
2021/10/16 03:40:25;;;;;;;15.67;3.53;;;8.70;91.80;;;;;;5055604;28;20257;-90
2021/10/16 03:42:51;;;;;;;14.07;3.40;;;8.80;91.80;;;;;;5037662;28;20183;-90
2021/10/16 03:45:17;;;;;;;10.00;2.90;;;8.80;91.70;;;;;;5037597;28;20200;-90
2021/10/16 03:47:42;;;;;;;7.10;2.73;;;8.70;91.70;;;;;;5037575;28;20180;-90
2021/10/16 03:50:08;;;;;;;9.37;2.53;;;8.80;91.70;;;;;;5037461;28;20215;-90
2021/10/16 03:52:34;;;;;;;13.73;3.23;;;8.80;91.70;;;;;;5037516;28;20176;-90
2021/10/16 03:55:00;;;;;;;14.33;3.83;;;8.80;91.60;;;;;;5037586;28;20218;-90
2021/10/16 03:57:26;;;;;;;10.10;2.87;;;8.80;91.60;;;;;;5037319;28;20176;-90
2021/10/16 03:59:52;;;;;;;15.63;3.30;;;8.70;91.60;;;;;;5037348;28;20211;-90
2021/10/16 04:02:19;;;;;;;12.17;3.20;;;8.80;91.60;;;;;;5037691;28;20594;-90
2021/10/16 04:04:45;;;;;;;12.57;3.07;;;8.80;91.60;;;;;;5055072;28;20222;-90
2021/10/16 04:07:11;;;;;;;14.20;2.70;;;8.80;91.60;;;;;;5055025;28;20168;-90
2021/10/16 04:09:37;;;;;;;12.10;2.77;;;8.80;91.60;;;;;;5055283;28;20183;-90
2021/10/16 04:12:03;;;;;;;12.63;2.93;;;8.80;91.80;;;;;;5038280;28;20263;-90
2021/10/16 04:14:28;;;;;;;10.90;3.40;;;8.90;91.70;;;;;;5037815;28;20209;-90
2021/10/16 04:16:54;;;;;;;10.23;3.13;;;8.90;91.70;;;;;;5037121;28;20190;-90
2021/10/16 04:19:20;;;;;;;13.33;2.80;;;8.90;91.70;;;;;;5037741;28;20207;-90
2021/10/16 04:21:46;;;;;;;6.63;2.40;;;8.90;91.70;;;;;;5037175;28;20176;-90
2021/10/16 04:24:11;;;;;;;14.17;3.03;;;8.90;91.70;;;;;;5036741;28;20749;-90
2021/10/16 04:26:37;;;;;;;16.50;3.43;;;9.00;91.70;;;;;;5036812;28;20176;-90
2021/10/16 04:29:04;;;;;;;10.57;2.87;;;8.90;91.50;;;;;;5036769;28;20187;-90
2021/10/16 04:31:29;;;;;;;12.67;3.30;;;9.00;91.50;;;;;;5036767;28;20275;-90
2021/10/16 04:33:55;;;;;;;20.43;3.50;;;9.00;91.50;;;;;;5054439;28;20203;-90
2021/10/16 04:36:21;;;;;;;12.93;3.60;;;8.90;91.70;;;;;;5054829;28;20636;-90
2021/10/16 04:38:48;;;;;;;14.53;3.83;;;8.90;91.80;;;;;;5054514;28;20200;-90
2021/10/16 04:41:15;;;;;;;14.50;3.30;;;8.90;91.80;;;;;;5054619;28;20206;-90
2021/10/16 04:43:41;;;;;;;14.53;3.20;;;8.90;91.80;;;;;;5036398;28;20671;-90
2021/10/16 04:46:12;;;;;;;13.80;3.33;;;8.80;91.80;;;;;;5036671;28;20254;-90
2021/10/16 04:48:42;;;;;;;14.23;3.63;;;8.80;91.80;;;;;;5036410;28;20556;-90
2021/10/16 04:51:08;;;;;;;13.77;3.43;;;8.80;91.60;;;;;;5054177;28;20210;-90
2021/10/16 04:53:33;;;;;;;13.80;3.63;;;8.80;91.60;;;;;;5036360;28;20594;-90
2021/10/16 04:55:59;;;;;;;14.50;2.97;;;8.70;91.40;;;;;;5036981;28;20557;-90
2021/10/16 04:58:25;;;;;;;11.30;3.10;;;8.70;91.40;;;;;;5036915;28;20204;-90
2021/10/16 05:00:51;;;;;;;12.03;2.87;;;8.60;91.20;;;;;;5036320;28;20195;-90
2021/10/16 05:03:17;;;;;;;19.00;3.40;;;8.60;91.30;;;;;;5036420;28;20226;-90
2021/10/16 05:05:43;;;;;;;18.37;3.20;;;8.60;91.20;;;;;;5036039;28;20286;-90
2021/10/16 05:08:09;;;;;;;9.87;3.00;;;8.60;91.20;;;;;;5035987;28;20184;-90
2021/10/16 05:10:35;;;;;;;9.97;3.10;;;8.60;91.10;;;;;;5036045;28;20180;-90
2021/10/16 05:13:00;;;;;;;6.80;2.93;;;8.50;91.20;;;;;;5036013;28;20184;-90
2021/10/16 05:15:26;;;;;;;12.53;3.03;;;8.50;91.20;;;;;;5035664;28;20257;-90
2021/10/16 05:17:53;;;;;;;10.90;2.80;;;8.50;91.10;;;;;;5036067;28;20290;-90
2021/10/16 05:20:19;;;;;;;15.70;2.93;;;8.50;91.10;;;;;;5036217;28;20292;-90
2021/10/16 05:22:45;;;;;;;7.97;3.10;;;8.50;91.00;;;;;;5053584;28;20706;-90
2021/10/16 05:25:11;;;;;;;7.40;3.07;;;8.30;91.00;;;;;;5035702;28;20572;-90
2021/10/16 05:27:38;;;;;;;12.73;3.30;;;8.40;91.10;;;;;;5035687;28;20187;-90
2021/10/16 05:30:05;;;;;;;9.03;2.80;;;8.40;91.10;;;;;;5036504;28;20237;-90
2021/10/16 05:32:31;;;;;;;7.90;2.73;;;8.40;91.10;;;;;;5035647;28;20180;-90
2021/10/16 05:34:57;;;;;;;10.33;3.43;;;8.40;91.20;;;;;;5053657;28;20196;-90
2021/10/16 05:37:23;;;;;;;12.87;3.40;;;8.40;91.30;;;;;;5035560;28;20195;-89
2021/10/16 05:39:48;;;;;;;10.97;3.20;;;8.30;91.40;;;;;;5035462;28;20210;-89
2021/10/16 05:42:14;;;;;;;10.80;3.30;;;8.30;91.50;;;;;;5053679;28;20230;-90
2021/10/16 05:44:39;;;;;;;8.17;2.60;;;8.30;91.60;;;;;;5035438;28;20222;-89
2021/10/16 05:47:05;;;;;;;10.37;3.63;;;8.30;91.70;;;;;;5035729;28;20178;-89
2021/10/16 05:49:31;;;;;;;12.53;3.13;;;8.30;91.80;;;;;;5035429;28;20218;-89
2021/10/16 05:51:57;;;;;;;7.13;2.93;;;8.30;91.80;;;;;;5053290;28;20176;-89
2021/10/16 05:54:22;;;;;;;10.00;2.93;;;8.30;91.80;;;;;;5035703;28;20314;-89
2021/10/16 05:56:48;;;;;;;15.73;3.30;;;8.30;91.90;;;;;;5053578;28;20176;-89
2021/10/16 05:59:14;;;;;;;15.03;4.60;;;8.30;92.00;;;;;;5035579;28;20218;-89
2021/10/16 06:01:39;;;;;;;10.73;4.33;;;8.30;92.00;;;;;;5035334;28;20176;-89
2021/10/16 06:04:05;;;;;;;14.60;3.20;;;8.30;92.00;;;;;;5035220;28;20200;-89
2021/10/16 06:06:31;;;;;;;11.83;3.37;;;8.40;92.00;;;;;;5053192;28;20183;-90
2021/10/16 06:08:57;;;;;;;9.40;3.10;;;8.50;91.90;;;;;;5035430;28;20259;-89
2021/10/16 06:11:22;;;;;;;10.57;3.03;;;8.50;91.90;;;;;;5036508;28;20633;-89
2021/10/16 06:13:48;;;;;;;13.07;3.63;;;8.50;91.90;;;;;;5035194;28;20180;-89
2021/10/16 06:16:14;;;;;;;18.70;3.93;;;8.50;91.90;;;;;;5035222;28;20188;-89
2021/10/16 06:18:43;;;;;;;14.37;3.50;;;8.50;91.90;;;;;;5035050;28;20199;-89
2021/10/16 06:21:10;;;;;;;14.67;3.77;;;8.50;91.90;;;;;;5035053;28;20263;-89
2021/10/16 06:23:36;;;;;;;11.83;3.13;;;8.50;91.80;;;;;;5035101;28;20175;-89
2021/10/16 06:26:01;;;;;;;11.27;3.27;;;8.60;91.70;;;;;;5053017;28;20544;-89
2021/10/16 06:28:27;;;;;;;11.50;3.30;;;8.60;91.60;;;;;;5039117;28;20180;-89
2021/10/16 06:30:53;;;;;;;7.50;3.10;;;8.60;91.70;;;;;;5056859;28;20226;-89
2021/10/16 06:33:19;;;;;;;16.93;3.30;;;8.60;91.50;;;;;;5038931;28;20660;-89
2021/10/16 06:35:45;;;;;;;10.90;3.23;;;8.70;91.50;;;;;;5056951;28;20335;-89
2021/10/16 06:38:10;;;;;;;10.70;4.00;;;8.70;91.40;;;;;;5039043;28;20204;-89
2021/10/16 06:40:36;;;;;;;11.33;3.00;;;8.70;91.40;;;;;;5056622;28;20247;-89
2021/10/16 06:43:02;;;;;;;9.67;2.80;;;8.70;91.30;;;;;;5038763;28;20176;-89
2021/10/16 06:45:28;;;;;;;8.43;3.00;;;8.70;91.10;;;;;;5038744;28;20192;-89
2021/10/16 06:47:54;;;;;;;14.33;3.40;;;8.70;91.30;;;;;;5038752;28;20177;-89
2021/10/16 06:50:20;;;;;;;13.03;3.27;;;8.70;91.20;;;;;;5038917;28;20183;-89
2021/10/16 06:52:46;;;;;;;13.30;3.07;;;8.70;91.10;;;;;;5038877;28;20259;-89
2021/10/16 06:55:12;;;;;;;12.40;3.17;;;8.70;91.10;;;;;;5038555;28;20251;-89
2021/10/16 06:57:37;;;;;;;14.40;3.10;;;8.60;91.20;;;;;;5056568;28;20172;-90
2021/10/16 07:00:05;;;;;;;11.40;3.43;;;8.70;91.10;;;;;;5056285;28;20640;-89
2021/10/16 07:02:31;;;;;;;8.63;2.90;;;8.70;91.20;;;;;;5056204;28;20652;-89
2021/10/16 07:04:56;;;;;;;10.00;3.00;;;8.70;91.20;;;;;;5056193;28;20198;-89
2021/10/16 07:07:22;;;;;;;13.63;2.90;;;8.70;91.10;;;;;;5038351;28;20206;-89
2021/10/16 07:09:49;;;;;;;16.97;3.97;;;8.70;91.00;;;;;;5038266;28;20202;-89
2021/10/16 07:12:14;;;;;;;13.83;2.80;;;8.70;90.80;;;;;;5038310;28;20180;-89
2021/10/16 07:14:40;;;;;;;12.33;3.23;;;8.70;90.70;;;;;;5038690;28;20226;-89
2021/10/16 07:17:06;;;;;;;11.73;3.23;;;8.80;90.60;;;;;;5038331;28;20176;-89
2021/10/16 07:19:32;;;;;;;8.43;2.30;;;8.80;90.60;;;;;;5037951;28;20204;-89
2021/10/16 07:21:58;;;;;;;12.97;2.60;;;8.90;90.50;;;;;;5038524;28;20762;-90
2021/10/16 07:24:24;;;;;;;11.60;2.93;;;8.90;90.50;;;;;;5038090;28;20234;-89
2021/10/16 07:26:49;;;;;;;8.27;2.80;;;9.00;90.20;;;;;;5038066;28;20221;-89
2021/10/16 07:29:15;;;;;;;8.70;2.60;;;9.10;89.90;;;;;;5037876;28;20183;-89
2021/10/16 07:31:41;;;;;;;8.77;2.73;;;9.20;90.30;;;;;;5037836;28;20671;-89
2021/10/16 07:34:07;;;;;;;9.23;2.67;;;9.20;90.20;;;;;;5055649;28;20271;-89
2021/10/16 07:36:34;;;;;;;14.00;3.13;;;9.10;90.30;;;;;;5037886;28;20183;-89
2021/10/16 07:39:05;;;;;;;8.90;2.40;;;9.10;90.40;;;;;;5037376;28;20615;-89
2021/10/16 07:41:31;;;;;;;12.10;3.67;;;9.20;90.30;;;;;;5037798;28;20164;-89
2021/10/16 07:43:57;;;;;;;16.43;3.03;;;9.20;90.30;;;;;;5037869;28;20168;-89
2021/10/16 07:46:22;;;;;;;12.33;3.60;;;9.20;90.40;;;;;;5037571;28;20632;-89
2021/10/16 07:48:48;;;;;;;9.03;2.87;;;9.20;90.50;;;;;;5038385;28;20271;-89
2021/10/16 07:51:14;;;;;;;9.00;2.90;;;9.30;90.70;;;;;;5037435;28;20176;-89
2021/10/16 07:53:40;;;;;;;12.63;3.03;;;9.30;90.70;;;;;;5055226;28;20705;-89
2021/10/16 07:56:06;;;;;;;8.83;2.97;;;9.30;90.40;;;;;;5037457;28;20660;-89
2021/10/16 07:58:32;;;;;;;10.77;2.93;;;9.40;90.50;;;;;;5037282;28;20303;-89
2021/10/16 08:00:58;;;;;;;6.73;2.60;;;9.50;90.50;;;;;;5037361;28;20209;-89
2021/10/16 08:03:24;;;;;;;14.27;2.87;;;9.50;90.20;;;;;;5037279;28;20183;-89
2021/10/16 08:05:49;;;;;;;11.40;3.00;;;9.50;89.50;;;;;;5037214;28;20195;-89
2021/10/16 08:08:15;;;;;;;6.60;2.83;;;9.50;88.80;;;;;;5055041;28;20656;-89
2021/10/16 08:10:41;;;;;;;9.40;2.80;;;9.50;88.50;;;;;;5038238;28;20663;-89
2021/10/16 08:13:07;;;;;;;12.30;3.00;;;9.50;88.20;;;;;;5055214;28;20175;-89
2021/10/16 08:15:34;;;;;;;10.20;3.00;;;9.60;88.30;;;;;;5036948;28;20199;-90
2021/10/16 08:18:00;;;;;;;12.17;2.73;;;9.70;88.80;;;;;;5037110;28;20200;-90
2021/10/16 08:20:27;;;;;;;17.17;4.90;;;9.70;88.80;;;;;;5036894;28;20547;-89
2021/10/16 08:22:52;;;;;;;6.80;2.50;;;9.80;88.90;;;;;;5036840;28;20180;-90
2021/10/16 08:25:18;;;;;;;18.13;3.00;;;9.80;88.20;;;;;;5036774;28;20293;-89
2021/10/16 08:27:47;;;;;;;7.70;2.43;;;9.80;88.90;;;;;;5036808;28;20230;-89
2021/10/16 08:30:14;;;;;;;6.97;2.77;;;9.90;89.00;;;;;;5036838;28;20172;-89
2021/10/16 08:32:40;;;;;;;11.97;3.23;;;9.90;88.50;;;;;;5036864;28;20176;-89
2021/10/16 08:35:07;;;;;;;8.77;2.60;;;9.90;88.80;;;;;;5036605;28;20241;-89
2021/10/16 08:37:33;;;;;;;13.20;3.30;;;10.00;88.60;;;;;;5054450;28;20218;-89
2021/10/16 08:39:59;;;;;;;8.30;2.80;;;10.10;88.60;;;;;;5036498;28;20203;-89
2021/10/16 08:42:24;;;;;;;8.83;2.80;;;10.10;88.20;;;;;;5036512;28;20224;-89
2021/10/16 08:44:57;;;;;;;12.23;3.13;;;10.20;87.90;;;;;;5036622;28;20199;-89
2021/10/16 08:47:24;;;;;;;10.40;2.67;;;10.20;88.30;;;;;;5054245;28;20186;-89
2021/10/16 08:49:52;;;;;;;8.27;2.83;;;10.30;87.80;;;;;;5035683;28;20172;-89
2021/10/16 08:52:18;;;;;;;7.10;2.93;;;10.30;87.80;;;;;;5036386;28;20547;-89
2021/10/16 08:54:43;;;;;;;6.33;2.47;;;10.30;88.10;;;;;;5036253;28;20217;-89
2021/10/16 08:57:09;;;;;;;10.23;2.70;;;10.30;87.80;;;;;;5036480;28;20172;-90
2021/10/16 08:59:35;;;;;;;7.57;2.33;;;10.40;87.60;;;;;;5036308;28;20214;-90
2021/10/16 09:02:06;;;;;;;8.47;2.50;;;10.50;88.00;;;;;;5036102;28;20182;-89
2021/10/16 09:04:33;;;;;;;8.27;2.90;;;10.70;87.70;;;;;;5036040;28;20203;-90
2021/10/16 09:06:58;;;;;;;15.50;3.00;;;10.80;87.50;;;;;;5036093;28;20230;-89
2021/10/16 09:09:30;;;;;;;8.73;2.80;;;10.70;86.20;;;;;;5036019;28;20219;-90
2021/10/16 09:11:56;;;;;;;10.30;3.30;;;10.70;86.60;;;;;;5036700;28;20218;-90
2021/10/16 09:14:22;;;;;;;7.67;2.53;;;10.70;85.80;;;;;;5035813;28;20226;-90
2021/10/16 09:16:57;;;;;;;8.97;2.73;;;11.00;86.20;;;;;;5035809;28;20203;-90
2021/10/16 09:19:27;;;;;;;7.57;2.40;;;11.00;85.50;;;;;;5053387;28;20192;-89
2021/10/16 09:22:03;;;;;;;8.40;2.57;;;11.20;86.70;;;;;;5035782;28;20668;-90
2021/10/16 09:24:38;;;;;;;9.40;2.77;;;11.00;84.70;;;;;;5053537;28;20218;-90
2021/10/16 09:27:06;;;;;;;12.27;4.80;;;11.20;86.10;;;;;;5035570;28;20651;-90
2021/10/16 09:29:35;;;;;;;11.57;2.97;;;11.50;86.30;;;;;;5036639;28;20724;-90
2021/10/16 09:32:04;;;;;;;7.87;3.13;;;11.70;86.50;;;;;;5036061;28;20218;-90
2021/10/16 09:34:36;;;;;;;7.40;2.30;;;11.90;86.50;;;;;;5035581;28;20196;-90
2021/10/16 09:37:13;;;;;;;9.53;2.43;;;11.90;85.40;;;;;;5035546;28;20274;-90
2021/10/16 09:39:41;;;;;;;7.50;2.13;;;11.70;83.70;;;;;;5035461;28;20570;-90
2021/10/16 09:42:09;;;;;;;8.40;2.43;;;11.30;83.60;;;;;;5035825;28;20191;-90
2021/10/16 09:44:37;;;;;;;10.60;2.07;;;11.20;83.80;;;;;;5035408;28;20192;-90
2021/10/16 09:47:09;;;;;;;6.87;1.90;;;11.40;84.20;;;;;;5035546;28;20262;-90
2021/10/16 09:49:40;;;;;;;8.10;2.67;;;11.40;83.30;;;;;;5035521;28;20164;-90
2021/10/16 09:52:08;;;;;;;11.30;2.23;;;11.70;84.50;;;;;;5035540;28;20203;-90
2021/10/16 09:54:37;;;;;;;7.30;2.23;;;11.50;82.80;;;;;;5035546;28;20223;-90
2021/10/16 09:57:08;;;;;;;6.83;2.47;;;11.20;83.70;;;;;;5035454;28;20184;-90
2021/10/16 09:59:35;;;;;;;5.53;2.30;;;11.50;84.80;;;;;;5036382;28;20203;-89
2021/10/16 10:02:02;;;;;;;10.20;2.50;;;11.30;83.40;;;;;;5041411;28;20258;-90
2021/10/16 10:04:31;;;;;;;9.27;2.50;;;11.40;83.90;;;;;;5059726;28;20184;-90
2021/10/16 10:06:58;;;;;;;9.07;3.13;;;11.40;83.80;;;;;;5042016;28;20171;-90
2021/10/16 10:09:24;;;;;;;8.07;2.30;;;11.40;84.40;;;;;;5059722;28;20179;-90
2021/10/16 10:11:53;;;;;;;7.27;2.33;;;11.40;84.60;;;;;;5041912;28;20187;-89
2021/10/16 10:14:20;;;;;;;7.23;2.60;;;11.40;83.00;;;;;;5041916;28;20683;-89
2021/10/16 10:16:48;;;;;;;9.40;2.40;;;11.30;83.50;;;;;;5041826;28;20180;-90
2021/10/16 10:19:16;;;;;;;9.60;2.40;;;11.30;83.90;;;;;;5059579;28;20199;-89
2021/10/16 10:21:42;;;;;;;11.87;2.77;;;11.40;83.70;;;;;;5041879;28;20175;-89
2021/10/16 10:24:10;;;;;;;11.53;3.40;;;11.30;83.40;;;;;;5041726;28;20191;-89
2021/10/16 10:26:41;;;;;;;9.40;2.80;;;11.30;83.60;;;;;;5059731;28;20164;-90
2021/10/16 10:29:20;;;;;;;9.97;2.80;;;11.30;83.30;;;;;;5059661;28;20581;-90
2021/10/16 10:31:46;;;;;;;8.80;2.87;;;11.30;84.00;;;;;;5041660;28;20164;-90
2021/10/16 10:34:39;;;;;;;10.47;2.80;;;11.30;83.50;;;;;;5041578;28;20363;-90
2021/10/16 10:37:06;;;;;;;6.33;2.40;;;11.50;83.90;;;;;;5039288;28;20601;-90
2021/10/16 10:39:34;;;;;;;9.67;2.23;;;11.60;84.20;;;;;;5041430;28;20601;-90
2021/10/16 10:42:23;;;;;;;7.43;2.53;;;11.40;83.20;;;;;;5041589;28;20175;-90
2021/10/16 10:45:00;;;;;;;8.03;3.20;;;11.40;83.20;;;;;;5041385;28;20184;-90
2021/10/16 10:47:30;;;;;;;12.07;3.30;;;11.40;82.70;;;;;;5041605;28;20163;-90
2021/10/16 10:50:36;;;;;;;14.20;3.60;;;11.50;83.00;;;;;;5041569;28;20229;-90
2021/10/16 10:53:05;;;;;;;9.70;2.83;;;11.50;83.70;;;;;;5041223;28;20171;-91
2021/10/16 10:55:52;;;;;;;9.43;2.90;;;11.50;82.70;;;;;;5041649;28;20238;-90
2021/10/16 10:58:19;;;;;;;6.73;2.60;;;11.50;83.00;;;;;;5041472;28;20615;-90
2021/10/16 11:00:45;;;;;;;6.97;2.80;;;11.50;83.50;;;;;;5041554;28;20226;-90
2021/10/16 11:03:37;;;;;;;8.20;3.10;;;11.60;82.80;;;;;;5059610;28;20202;-90
2021/10/16 11:06:23;;;;;;;9.30;2.63;;;11.60;82.40;;;;;;5056671;28;20208;-90
2021/10/16 11:08:49;;;;;;;11.73;3.03;;;11.60;83.30;;;;;;5059175;28;20188;-90
2021/10/16 11:11:16;;;;;;;9.33;3.30;;;11.70;82.80;;;;;;5059569;28;20656;-90
2021/10/16 11:13:41;;;;;;;6.53;2.97;;;11.70;82.90;;;;;;5037364;28;20180;-90
2021/10/16 11:16:07;;;;;;;10.30;2.70;;;11.80;81.80;;;;;;5038529;28;20187;-90
2021/10/16 11:18:35;;;;;;;7.93;2.80;;;11.80;81.60;;;;;;5038360;28;20199;-90
2021/10/16 11:21:04;;;;;;;10.43;2.67;;;11.80;81.40;;;;;;5056129;28;20168;-90
2021/10/16 11:23:30;;;;;;;11.43;2.67;;;11.90;81.00;;;;;;5038021;28;20168;-90
2021/10/16 11:25:58;;;;;;;9.37;2.83;;;12.10;80.10;;;;;;5038025;28;20253;-90
2021/10/16 11:28:24;;;;;;;13.10;2.57;;;12.10;78.40;;;;;;5055827;28;20256;-91
2021/10/16 11:30:54;;;;;;;12.03;2.43;;;12.20;79.40;;;;;;5037897;28;20179;-90
2021/10/16 11:33:25;;;;;;;6.23;2.00;;;12.20;77.80;;;;;;5037850;28;20172;-90
2021/10/16 11:35:56;;;;;;;7.47;2.33;;;12.40;78.90;;;;;;5037853;28;20200;-90
2021/10/16 11:38:24;;;;;;;9.23;2.70;;;12.40;78.40;;;;;;5038499;28;20196;-90
2021/10/16 11:40:51;;;;;;;8.43;2.90;;;12.30;77.40;;;;;;5037781;28;20717;-90
2021/10/16 11:43:23;;;;;;;9.70;2.47;;;12.30;78.60;;;;;;5037786;28;20230;-91
2021/10/16 11:45:50;;;;;;;7.70;2.13;;;12.20;76.60;;;;;;5037647;28;20562;-90
2021/10/16 11:48:19;;;;;;;9.83;2.20;;;12.30;75.10;;;;;;5037668;28;20168;-90
2021/10/16 11:50:46;;;;;;;8.90;2.43;;;12.20;75.40;;;;;;5037655;28;20176;-90
2021/10/16 11:53:24;;;;;;;5.87;2.00;;;12.20;73.30;;;;;;5037823;28;20179;-90
2021/10/16 11:55:51;;;;;;;5.87;1.87;;;12.10;72.80;;;;;;5037438;28;20215;-90
2021/10/16 11:58:20;;;;;;;10.20;2.60;;;12.10;73.60;;;;;;5038501;28;20563;-90
2021/10/16 12:00:59;;;;;;;7.53;2.17;;;12.00;73.70;;;;;;5037376;28;20196;-91
2021/10/16 12:03:32;;;;;;;6.50;1.90;;;12.10;74.10;;;;;;5037532;28;20601;-91
2021/10/16 12:06:03;;;;;;;6.27;1.87;;;12.10;73.80;;;;;;5037727;28;20192;-90
2021/10/16 12:08:31;;;;;;;7.97;2.03;;;12.00;72.50;;;;;;5037248;28;20595;-90
2021/10/16 12:11:02;;;;;;;7.33;2.03;;;12.00;72.50;;;;;;5037186;28;20180;-90
2021/10/16 12:13:36;;;;;;;9.13;2.00;;;12.00;73.70;;;;;;5037672;28;20569;-90
2021/10/16 12:16:20;;;;;;;9.33;2.40;;;12.00;74.60;;;;;;5036945;28;20203;-90
2021/10/16 12:18:57;;;;;;;5.47;1.97;;;11.80;72.30;;;;;;5037022;28;20223;-90
2021/10/16 12:21:33;;;;;;;6.10;2.40;;;11.80;72.80;;;;;;5054814;28;20647;-90
2021/10/16 12:24:10;;;;;;;5.87;2.20;;;11.80;74.50;;;;;;5035764;28;20573;-90
2021/10/16 12:26:37;;;;;;;8.30;2.23;;;11.70;74.70;;;;;;5054754;28;20156;-91
2021/10/16 12:29:11;;;;;;;9.40;2.23;;;11.70;74.10;;;;;;5054655;28;20648;-91
2021/10/16 12:31:48;;;;;;;9.43;2.10;;;11.60;73.90;;;;;;5054692;28;20159;-90
2021/10/16 12:34:36;;;;;;;7.50;2.10;;;11.50;72.80;;;;;;5036774;28;20734;-90
2021/10/16 12:37:03;;;;;;;6.00;1.90;;;11.50;73.50;;;;;;5054808;28;20152;-90
2021/10/16 12:39:41;;;;;;;9.33;2.47;;;11.60;72.90;;;;;;5036573;28;20204;-90
2021/10/16 12:42:32;;;;;;;6.17;2.50;;;11.60;72.90;;;;;;5036470;28;20175;-90
2021/10/16 12:45:09;;;;;;;6.67;2.57;;;11.70;72.00;;;;;;5037053;28;20196;-90
2021/10/16 12:47:34;;;;;;;8.37;1.90;;;11.80;73.40;;;;;;5036435;28;20176;-91
2021/10/16 12:50:03;;;;;;;7.00;2.17;;;11.90;72.20;;;;;;5036518;28;20553;-90